sensor_id;sensor_type;location;lat;lon;timestamp;pressure;altitude;pressure_sealevel;temperature;humidity
79538;BME280;68989;52.032;5.152;2023-04-15T00:00:13;100985.77;;;14.64;46.50
79538;BME280;68989;52.032;5.152;2023-04-15T00:02:41;100987.27;;;14.58;46.07
79538;BME280;68989;52.032;5.152;2023-04-15T00:05:09;100987.80;;;14.53;46.23
79538;BME280;68989;52.032;5.152;2023-04-15T00:07:37;100987.10;;;14.50;46.63
79538;BME280;68989;52.032;5.152;2023-04-15T00:10:10;100985.87;;;14.51;46.75
79538;BME280;68989;52.032;5.152;2023-04-15T00:12:37;100986.03;;;14.50;46.30
79538;BME280;68989;52.032;5.152;2023-04-15T00:15:05;100984.20;;;14.46;46.40
79538;BME280;68989;52.032;5.152;2023-04-15T00:17:33;100982.17;;;14.43;46.89
79538;BME280;68989;52.032;5.152;2023-04-15T00:20:01;100981.15;;;14.42;47.24
79538;BME280;68989;52.032;5.152;2023-04-15T00:22:28;100980.53;;;14.44;46.84
79538;BME280;68989;52.032;5.152;2023-04-15T00:24:55;100980.01;;;14.44;46.66
79538;BME280;68989;52.032;5.152;2023-04-15T00:27:23;100977.40;;;14.42;46.34
79538;BME280;68989;52.032;5.152;2023-04-15T00:29:50;100978.59;;;14.39;46.93
79538;BME280;68989;52.032;5.152;2023-04-15T00:32:17;100978.59;;;14.34;46.35
79538;BME280;68989;52.032;5.152;2023-04-15T00:34:44;100976.99;;;14.28;46.68
79538;BME280;68989;52.032;5.152;2023-04-15T00:37:12;100976.93;;;14.26;46.77
79538;BME280;68989;52.032;5.152;2023-04-15T00:39:39;100979.26;;;14.21;46.64
79538;BME280;68989;52.032;5.152;2023-04-15T00:42:06;100980.59;;;14.17;46.87
79538;BME280;68989;52.032;5.152;2023-04-15T00:44:34;100979.55;;;14.16;47.26
79538;BME280;68989;52.032;5.152;2023-04-15T00:47:03;100981.43;;;14.16;47.27
79538;BME280;68989;52.032;5.152;2023-04-15T00:49:31;100986.40;;;14.17;47.24
79538;BME280;68989;52.032;5.152;2023-04-15T00:51:59;100986.33;;;14.14;47.08
79538;BME280;68989;52.032;5.152;2023-04-15T00:54:26;100987.10;;;14.10;46.90
79538;BME280;68989;52.032;5.152;2023-04-15T00:56:53;100987.45;;;14.09;47.08
79538;BME280;68989;52.032;5.152;2023-04-15T00:59:20;100985.33;;;14.07;47.15
79538;BME280;68989;52.032;5.152;2023-04-15T01:02:08;100985.54;;;14.06;47.43
79538;BME280;68989;52.032;5.152;2023-04-15T01:04:35;100985.85;;;14.03;47.05
79538;BME280;68989;52.032;5.152;2023-04-15T01:07:03;100986.24;;;14.02;47.27
79538;BME280;68989;52.032;5.152;2023-04-15T01:09:30;100984.83;;;13.97;47.20
79538;BME280;68989;52.032;5.152;2023-04-15T01:11:58;100984.77;;;13.93;47.52
79538;BME280;68989;52.032;5.152;2023-04-15T01:14:25;100985.71;;;13.90;47.10
79538;BME280;68989;52.032;5.152;2023-04-15T01:16:53;100983.84;;;13.89;47.42
79538;BME280;68989;52.032;5.152;2023-04-15T01:19:20;100983.28;;;13.81;47.27
79538;BME280;68989;52.032;5.152;2023-04-15T01:21:47;100981.18;;;13.77;47.51
79538;BME280;68989;52.032;5.152;2023-04-15T01:24:14;100980.51;;;13.77;47.46
79538;BME280;68989;52.032;5.152;2023-04-15T01:26:43;100983.78;;;13.73;47.43
79538;BME280;68989;52.032;5.152;2023-04-15T01:29:11;100980.33;;;13.71;47.54
79538;BME280;68989;52.032;5.152;2023-04-15T01:31:38;100982.94;;;13.70;47.77
79538;BME280;68989;52.032;5.152;2023-04-15T01:34:05;100982.69;;;13.67;47.26
79538;BME280;68989;52.032;5.152;2023-04-15T01:36:32;100983.13;;;13.63;47.76
79538;BME280;68989;52.032;5.152;2023-04-15T01:39:00;100979.39;;;13.61;47.72
79538;BME280;68989;52.032;5.152;2023-04-15T01:41:27;100982.46;;;13.59;47.57
79538;BME280;68989;52.032;5.152;2023-04-15T01:43:54;100981.58;;;13.59;47.56
79538;BME280;68989;52.032;5.152;2023-04-15T01:46:22;100985.10;;;13.56;47.73
79538;BME280;68989;52.032;5.152;2023-04-15T01:48:49;100984.85;;;13.52;47.71
79538;BME280;68989;52.032;5.152;2023-04-15T01:51:16;100987.20;;;13.50;48.08
79538;BME280;68989;52.032;5.152;2023-04-15T01:53:43;100986.60;;;13.45;47.48
79538;BME280;68989;52.032;5.152;2023-04-15T01:56:10;100985.20;;;13.44;48.00
79538;BME280;68989;52.032;5.152;2023-04-15T01:58:37;100984.44;;;13.44;47.87
79538;BME280;68989;52.032;5.152;2023-04-15T02:01:04;100985.63;;;13.42;47.92
79538;BME280;68989;52.032;5.152;2023-04-15T02:03:31;100988.64;;;13.42;47.99
79538;BME280;68989;52.032;5.152;2023-04-15T02:05:58;100989.38;;;13.41;48.15
79538;BME280;68989;52.032;5.152;2023-04-15T02:08:25;100987.69;;;13.38;48.29
79538;BME280;68989;52.032;5.152;2023-04-15T02:10:52;100990.10;;;13.37;48.16
79538;BME280;68989;52.032;5.152;2023-04-15T02:13:20;100990.36;;;13.36;48.00
79538;BME280;68989;52.032;5.152;2023-04-15T02:15:47;100995.20;;;13.35;48.36
79538;BME280;68989;52.032;5.152;2023-04-15T02:18:14;100993.64;;;13.36;48.22
79538;BME280;68989;52.032;5.152;2023-04-15T02:20:41;100997.12;;;13.36;48.15
79538;BME280;68989;52.032;5.152;2023-04-15T02:23:08;101003.94;;;13.36;48.11
79538;BME280;68989;52.032;5.152;2023-04-15T02:25:35;101005.94;;;13.35;48.49
79538;BME280;68989;52.032;5.152;2023-04-15T02:28:03;101007.66;;;13.36;48.27
79538;BME280;68989;52.032;5.152;2023-04-15T02:30:30;101009.43;;;13.37;48.27
79538;BME280;68989;52.032;5.152;2023-04-15T02:32:57;101008.54;;;13.37;48.27
79538;BME280;68989;52.032;5.152;2023-04-15T02:35:25;101015.70;;;13.37;48.30
79538;BME280;68989;52.032;5.152;2023-04-15T02:37:52;101015.89;;;13.35;48.25
79538;BME280;68989;52.032;5.152;2023-04-15T02:40:19;101019.88;;;13.31;48.09
79538;BME280;68989;52.032;5.152;2023-04-15T02:42:46;101024.65;;;13.26;48.44
79538;BME280;68989;52.032;5.152;2023-04-15T02:45:13;101021.94;;;13.21;48.30
79538;BME280;68989;52.032;5.152;2023-04-15T02:47:41;101026.39;;;13.14;48.30
79538;BME280;68989;52.032;5.152;2023-04-15T02:50:09;101029.10;;;13.14;48.69
79538;BME280;68989;52.032;5.152;2023-04-15T02:52:36;101030.40;;;13.14;48.61
79538;BME280;68989;52.032;5.152;2023-04-15T02:55:04;101032.15;;;13.14;48.80
79538;BME280;68989;52.032;5.152;2023-04-15T02:57:31;101034.52;;;13.14;48.90
79538;BME280;68989;52.032;5.152;2023-04-15T02:59:58;101040.25;;;13.11;48.61
79538;BME280;68989;52.032;5.152;2023-04-15T03:02:24;101040.99;;;13.10;48.81
79538;BME280;68989;52.032;5.152;2023-04-15T03:04:51;101039.60;;;13.06;48.91
79538;BME280;68989;52.032;5.152;2023-04-15T03:07:18;101039.99;;;13.04;48.95
79538;BME280;68989;52.032;5.152;2023-04-15T03:09:45;101042.82;;;13.04;48.96
79538;BME280;68989;52.032;5.152;2023-04-15T03:12:13;101044.50;;;13.06;48.89
79538;BME280;68989;52.032;5.152;2023-04-15T03:14:40;101044.08;;;13.04;48.84
79538;BME280;68989;52.032;5.152;2023-04-15T03:17:07;101045.85;;;13.06;48.87
79538;BME280;68989;52.032;5.152;2023-04-15T03:19:34;101046.93;;;13.06;48.70
79538;BME280;68989;52.032;5.152;2023-04-15T03:22:01;101046.94;;;13.05;48.69
79538;BME280;68989;52.032;5.152;2023-04-15T03:24:28;101054.23;;;13.01;48.78
79538;BME280;68989;52.032;5.152;2023-04-15T03:26:55;101055.81;;;12.97;48.74
79538;BME280;68989;52.032;5.152;2023-04-15T03:29:22;101058.46;;;12.93;48.93
79538;BME280;68989;52.032;5.152;2023-04-15T03:31:50;101061.86;;;12.87;49.19
79538;BME280;68989;52.032;5.152;2023-04-15T03:34:17;101059.29;;;12.82;49.37
79538;BME280;68989;52.032;5.152;2023-04-15T03:36:45;101063.34;;;12.81;49.31
79538;BME280;68989;52.032;5.152;2023-04-15T03:39:12;101064.60;;;12.78;49.32
79538;BME280;68989;52.032;5.152;2023-04-15T03:41:39;101063.47;;;12.74;49.47
79538;BME280;68989;52.032;5.152;2023-04-15T03:44:06;101065.00;;;12.65;49.76
79538;BME280;68989;52.032;5.152;2023-04-15T03:46:33;101070.30;;;12.54;49.84
79538;BME280;68989;52.032;5.152;2023-04-15T03:49:01;101072.25;;;12.55;50.24
79538;BME280;68989;52.032;5.152;2023-04-15T03:51:28;101075.98;;;12.58;49.99
79538;BME280;68989;52.032;5.152;2023-04-15T03:53:55;101080.12;;;12.59;50.11
79538;BME280;68989;52.032;5.152;2023-04-15T03:56:21;101080.10;;;12.59;49.99
79538;BME280;68989;52.032;5.152;2023-04-15T03:58:48;101080.93;;;12.57;49.91
79538;BME280;68989;52.032;5.152;2023-04-15T04:01:16;101084.50;;;12.51;50.30
79538;BME280;68989;52.032;5.152;2023-04-15T04:03:43;101085.85;;;12.43;50.34
79538;BME280;68989;52.032;5.152;2023-04-15T04:06:10;101088.32;;;12.40;50.44
79538;BME280;68989;52.032;5.152;2023-04-15T04:08:37;101088.88;;;12.37;50.68
79538;BME280;68989;52.032;5.152;2023-04-15T04:11:04;101091.29;;;12.33;50.92
79538;BME280;68989;52.032;5.152;2023-04-15T04:13:31;101095.00;;;12.34;50.77
79538;BME280;68989;52.032;5.152;2023-04-15T04:15:58;101097.17;;;12.35;50.80
79538;BME280;68989;52.032;5.152;2023-04-15T04:18:25;101101.97;;;12.37;50.88
79538;BME280;68989;52.032;5.152;2023-04-15T04:20:52;101100.52;;;12.38;50.79
79538;BME280;68989;52.032;5.152;2023-04-15T04:23:19;101104.17;;;12.38;50.71
79538;BME280;68989;52.032;5.152;2023-04-15T04:25:46;101107.52;;;12.39;50.45
79538;BME280;68989;52.032;5.152;2023-04-15T04:28:14;101106.21;;;12.40;50.84
79538;BME280;68989;52.032;5.152;2023-04-15T04:30:41;101113.54;;;12.35;50.86
79538;BME280;68989;52.032;5.152;2023-04-15T04:33:08;101117.52;;;12.36;50.93
79538;BME280;68989;52.032;5.152;2023-04-15T04:35:35;101118.45;;;12.38;50.77
79538;BME280;68989;52.032;5.152;2023-04-15T04:38:02;101123.66;;;12.39;50.77
79538;BME280;68989;52.032;5.152;2023-04-15T04:40:30;101124.69;;;12.35;50.81
79538;BME280;68989;52.032;5.152;2023-04-15T04:42:56;101129.00;;;12.37;50.72
79538;BME280;68989;52.032;5.152;2023-04-15T04:45:23;101136.07;;;12.33;50.94
79538;BME280;68989;52.032;5.152;2023-04-15T04:47:50;101140.38;;;12.31;50.84
79538;BME280;68989;52.032;5.152;2023-04-15T04:50:17;101143.53;;;12.29;50.99
79538;BME280;68989;52.032;5.152;2023-04-15T04:52:44;101145.64;;;12.30;51.00
79538;BME280;68989;52.032;5.152;2023-04-15T04:55:11;101152.81;;;12.33;50.91
79538;BME280;68989;52.032;5.152;2023-04-15T04:57:38;101154.11;;;12.33;50.90
79538;BME280;68989;52.032;5.152;2023-04-15T05:00:06;101161.37;;;12.33;50.81
79538;BME280;68989;52.032;5.152;2023-04-15T05:02:34;101162.71;;;12.35;50.75
79538;BME280;68989;52.032;5.152;2023-04-15T05:05:01;101165.85;;;12.35;50.77
79538;BME280;68989;52.032;5.152;2023-04-15T05:07:28;101172.37;;;12.33;50.75
79538;BME280;68989;52.032;5.152;2023-04-15T05:09:55;101171.18;;;12.32;50.94
79538;BME280;68989;52.032;5.152;2023-04-15T05:12:22;101174.37;;;12.32;50.83
79538;BME280;68989;52.032;5.152;2023-04-15T05:14:49;101183.75;;;12.30;51.00
79538;BME280;68989;52.032;5.152;2023-04-15T05:17:16;101190.68;;;12.27;51.07
79538;BME280;68989;52.032;5.152;2023-04-15T05:19:43;101197.12;;;12.24;51.09
79538;BME280;68989;52.032;5.152;2023-04-15T05:22:10;101200.26;;;12.20;51.46
79538;BME280;68989;52.032;5.152;2023-04-15T05:24:38;101203.92;;;12.16;51.55
79538;BME280;68989;52.032;5.152;2023-04-15T05:27:04;101210.31;;;12.11;51.76
79538;BME280;68989;52.032;5.152;2023-04-15T05:29:31;101210.85;;;12.02;52.10
79538;BME280;68989;52.032;5.152;2023-04-15T05:31:58;101215.69;;;12.02;52.39
79538;BME280;68989;52.032;5.152;2023-04-15T05:34:25;101217.41;;;12.05;52.16
79538;BME280;68989;52.032;5.152;2023-04-15T05:36:52;101223.21;;;12.05;52.24
79538;BME280;68989;52.032;5.152;2023-04-15T05:39:19;101226.40;;;12.04;52.38
79538;BME280;68989;52.032;5.152;2023-04-15T05:41:46;101233.38;;;12.03;52.43
79538;BME280;68989;52.032;5.152;2023-04-15T05:44:13;101235.50;;;12.09;52.34
79538;BME280;68989;52.032;5.152;2023-04-15T05:46:40;101239.76;;;12.14;52.14
79538;BME280;68989;52.032;5.152;2023-04-15T05:49:07;101242.33;;;12.15;52.01
79538;BME280;68989;52.032;5.152;2023-04-15T05:51:34;101247.24;;;12.16;52.26
79538;BME280;68989;52.032;5.152;2023-04-15T05:54:01;101254.14;;;12.16;52.18
79538;BME280;68989;52.032;5.152;2023-04-15T05:56:28;101263.57;;;12.09;52.57
79538;BME280;68989;52.032;5.152;2023-04-15T05:58:55;101268.39;;;12.05;52.71
79538;BME280;68989;52.032;5.152;2023-04-15T06:01:22;101270.11;;;12.01;52.96
79538;BME280;68989;52.032;5.152;2023-04-15T06:03:49;101277.05;;;12.03;53.10
79538;BME280;68989;52.032;5.152;2023-04-15T06:06:16;101283.13;;;12.07;52.90
79538;BME280;68989;52.032;5.152;2023-04-15T06:08:43;101289.50;;;12.10;52.95
79538;BME280;68989;52.032;5.152;2023-04-15T06:11:10;101294.10;;;12.12;52.90
79538;BME280;68989;52.032;5.152;2023-04-15T06:13:37;101296.04;;;12.13;52.91
79538;BME280;68989;52.032;5.152;2023-04-15T06:16:05;101300.82;;;12.12;52.94
79538;BME280;68989;52.032;5.152;2023-04-15T06:18:32;101308.28;;;12.13;53.05
79538;BME280;68989;52.032;5.152;2023-04-15T06:20:58;101311.97;;;12.09;53.23
79538;BME280;68989;52.032;5.152;2023-04-15T06:23:26;101317.53;;;12.04;53.45
79538;BME280;68989;52.032;5.152;2023-04-15T06:25:53;101315.81;;;12.03;53.75
79538;BME280;68989;52.032;5.152;2023-04-15T06:28:21;101319.54;;;12.08;53.80
79538;BME280;68989;52.032;5.152;2023-04-15T06:30:48;101319.10;;;12.11;53.65
79538;BME280;68989;52.032;5.152;2023-04-15T06:33:15;101321.93;;;12.14;54.09
79538;BME280;68989;52.032;5.152;2023-04-15T06:35:42;101323.87;;;12.24;54.03
79538;BME280;68989;52.032;5.152;2023-04-15T06:38:09;101330.44;;;12.37;53.96
79538;BME280;68989;52.032;5.152;2023-04-15T06:40:36;101335.90;;;12.50;53.92
79538;BME280;68989;52.032;5.152;2023-04-15T06:43:04;101342.02;;;12.65;54.00
79538;BME280;68989;52.032;5.152;2023-04-15T06:45:31;101339.01;;;12.74;54.02
79538;BME280;68989;52.032;5.152;2023-04-15T06:47:58;101346.03;;;12.83;53.89
79538;BME280;68989;52.032;5.152;2023-04-15T06:50:25;101349.33;;;12.98;53.80
79538;BME280;68989;52.032;5.152;2023-04-15T06:52:53;101353.30;;;13.15;53.29
79538;BME280;68989;52.032;5.152;2023-04-15T06:55:21;101357.81;;;13.29;52.83
79538;BME280;68989;52.032;5.152;2023-04-15T06:57:48;101353.85;;;13.46;52.74
79538;BME280;68989;52.032;5.152;2023-04-15T07:00:15;101356.45;;;13.59;52.53
79538;BME280;68989;52.032;5.152;2023-04-15T07:02:43;101364.51;;;13.75;52.14
79538;BME280;68989;52.032;5.152;2023-04-15T07:05:10;101367.40;;;13.93;51.69
79538;BME280;68989;52.032;5.152;2023-04-15T07:07:37;101375.82;;;14.12;51.30
79538;BME280;68989;52.032;5.152;2023-04-15T07:10:06;101369.30;;;14.22;51.32
79538;BME280;68989;52.032;5.152;2023-04-15T07:12:33;101375.23;;;14.31;51.40
79538;BME280;68989;52.032;5.152;2023-04-15T07:15:00;101376.38;;;14.42;50.83
79538;BME280;68989;52.032;5.152;2023-04-15T07:17:26;101381.29;;;14.49;50.62
79538;BME280;68989;52.032;5.152;2023-04-15T07:19:53;101382.24;;;14.61;50.57
79538;BME280;68989;52.032;5.152;2023-04-15T07:22:20;101387.18;;;14.75;50.13
79538;BME280;68989;52.032;5.152;2023-04-15T07:24:47;101391.55;;;14.84;50.03
79538;BME280;68989;52.032;5.152;2023-04-15T07:27:14;101397.91;;;14.88;49.93
79538;BME280;68989;52.032;5.152;2023-04-15T07:29:42;101403.15;;;14.92;49.98
79538;BME280;68989;52.032;5.152;2023-04-15T07:32:10;101407.92;;;14.96;49.99
79538;BME280;68989;52.032;5.152;2023-04-15T07:34:37;101411.80;;;15.04;49.84
79538;BME280;68989;52.032;5.152;2023-04-15T07:37:04;101415.61;;;15.16;49.60
79538;BME280;68989;52.032;5.152;2023-04-15T07:39:31;101420.09;;;15.28;49.20
79538;BME280;68989;52.032;5.152;2023-04-15T07:41:58;101419.80;;;15.30;49.31
79538;BME280;68989;52.032;5.152;2023-04-15T07:44:26;101420.07;;;15.41;49.02
79538;BME280;68989;52.032;5.152;2023-04-15T07:46:52;101419.90;;;15.43;48.78
79538;BME280;68989;52.032;5.152;2023-04-15T07:49:20;101421.39;;;15.46;48.53
79538;BME280;68989;52.032;5.152;2023-04-15T07:51:48;101428.67;;;15.52;48.66
79538;BME280;68989;52.032;5.152;2023-04-15T07:54:14;101430.04;;;15.68;48.19
79538;BME280;68989;52.032;5.152;2023-04-15T07:56:42;101433.87;;;15.88;47.99
79538;BME280;68989;52.032;5.152;2023-04-15T07:59:09;101435.87;;;16.10;47.47
79538;BME280;68989;52.032;5.152;2023-04-15T08:01:36;101437.29;;;16.25;47.13
79538;BME280;68989;52.032;5.152;2023-04-15T08:04:03;101440.84;;;16.41;46.57
79538;BME280;68989;52.032;5.152;2023-04-15T08:06:31;101444.52;;;16.52;46.22
79538;BME280;68989;52.032;5.152;2023-04-15T08:08:57;101451.18;;;16.56;45.79
79538;BME280;68989;52.032;5.152;2023-04-15T08:11:25;101451.02;;;16.51;45.44
79538;BME280;68989;52.032;5.152;2023-04-15T08:13:52;101455.95;;;16.57;45.65
79538;BME280;68989;52.032;5.152;2023-04-15T08:16:21;101455.33;;;16.73;44.85
79538;BME280;68989;52.032;5.152;2023-04-15T08:18:50;101458.19;;;16.66;44.29
79538;BME280;68989;52.032;5.152;2023-04-15T08:21:19;101464.07;;;16.63;44.39
79538;BME280;68989;52.032;5.152;2023-04-15T08:23:47;101469.76;;;16.52;44.41
79538;BME280;68989;52.032;5.152;2023-04-15T08:26:15;101470.56;;;16.65;44.66
79538;BME280;68989;52.032;5.152;2023-04-15T08:28:43;101476.64;;;16.84;44.16
79538;BME280;68989;52.032;5.152;2023-04-15T08:31:11;101474.70;;;17.02;43.79
79538;BME280;68989;52.032;5.152;2023-04-15T08:33:38;101484.04;;;17.20;42.72
79538;BME280;68989;52.032;5.152;2023-04-15T08:36:06;101486.37;;;17.29;42.83
79538;BME280;68989;52.032;5.152;2023-04-15T08:38:33;101495.47;;;17.38;42.98
79538;BME280;68989;52.032;5.152;2023-04-15T08:41:06;101497.18;;;17.41;42.57
79538;BME280;68989;52.032;5.152;2023-04-15T08:43:34;101502.83;;;17.12;42.74
79538;BME280;68989;52.032;5.152;2023-04-15T08:46:04;101508.07;;;17.17;42.92
79538;BME280;68989;52.032;5.152;2023-04-15T08:48:32;101511.73;;;17.12;42.84
79538;BME280;68989;52.032;5.152;2023-04-15T08:51:00;101511.58;;;17.02;42.89
79538;BME280;68989;52.032;5.152;2023-04-15T08:53:28;101515.35;;;17.15;43.11
79538;BME280;68989;52.032;5.152;2023-04-15T08:55:56;101519.68;;;17.17;42.76
79538;BME280;68989;52.032;5.152;2023-04-15T08:58:25;101517.06;;;17.36;42.47
79538;BME280;68989;52.032;5.152;2023-04-15T09:00:55;101522.60;;;17.44;41.72
79538;BME280;68989;52.032;5.152;2023-04-15T09:03:22;101527.64;;;17.44;41.89
79538;BME280;68989;52.032;5.152;2023-04-15T09:05:49;101525.36;;;17.62;42.21
79538;BME280;68989;52.032;5.152;2023-04-15T09:08:16;101534.22;;;17.75;41.41
79538;BME280;68989;52.032;5.152;2023-04-15T09:10:43;101537.29;;;17.71;41.83
79538;BME280;68989;52.032;5.152;2023-04-15T09:13:11;101539.44;;;17.97;41.86
79538;BME280;68989;52.032;5.152;2023-04-15T09:15:38;101542.07;;;18.05;40.76
79538;BME280;68989;52.032;5.152;2023-04-15T09:18:06;101547.36;;;18.01;40.95
79538;BME280;68989;52.032;5.152;2023-04-15T09:20:38;101548.69;;;18.00;40.54
79538;BME280;68989;52.032;5.152;2023-04-15T09:23:11;101553.20;;;18.07;40.86
79538;BME280;68989;52.032;5.152;2023-04-15T09:25:39;101559.40;;;18.36;41.21
79538;BME280;68989;52.032;5.152;2023-04-15T09:28:08;101563.52;;;18.60;39.92
79538;BME280;68989;52.032;5.152;2023-04-15T09:30:35;101564.60;;;18.81;39.58
79538;BME280;68989;52.032;5.152;2023-04-15T09:33:03;101565.57;;;18.73;39.22
79538;BME280;68989;52.032;5.152;2023-04-15T09:35:30;101569.62;;;18.81;39.72
79538;BME280;68989;52.032;5.152;2023-04-15T09:38:02;101569.57;;;18.82;38.82
79538;BME280;68989;52.032;5.152;2023-04-15T09:40:31;101576.19;;;18.89;39.13
79538;BME280;68989;52.032;5.152;2023-04-15T09:42:58;101582.91;;;18.75;38.80
79538;BME280;68989;52.032;5.152;2023-04-15T09:45:25;101584.59;;;18.55;38.82
79538;BME280;68989;52.032;5.152;2023-04-15T09:47:52;101587.44;;;18.18;39.33
79538;BME280;68989;52.032;5.152;2023-04-15T09:50:20;101586.82;;;17.94;39.71
79538;BME280;68989;52.032;5.152;2023-04-15T09:52:47;101592.21;;;18.02;40.47
79538;BME280;68989;52.032;5.152;2023-04-15T09:55:14;101591.16;;;18.26;40.75
79538;BME280;68989;52.032;5.152;2023-04-15T09:57:41;101597.22;;;18.41;39.67
79538;BME280;68989;52.032;5.152;2023-04-15T10:00:08;101597.77;;;18.62;40.10
79538;BME280;68989;52.032;5.152;2023-04-15T10:02:36;101598.08;;;18.85;40.33
79538;BME280;68989;52.032;5.152;2023-04-15T10:05:05;101600.71;;;18.98;40.16
79538;BME280;68989;52.032;5.152;2023-04-15T10:07:32;101600.44;;;19.04;38.94
79538;BME280;68989;52.032;5.152;2023-04-15T10:10:00;101602.76;;;19.28;39.65
79538;BME280;68989;52.032;5.152;2023-04-15T10:12:27;101599.78;;;19.60;39.28
79538;BME280;68989;52.032;5.152;2023-04-15T10:14:58;101603.88;;;19.86;39.06
79538;BME280;68989;52.032;5.152;2023-04-15T10:17:27;101608.37;;;20.10;38.05
79538;BME280;68989;52.032;5.152;2023-04-15T10:19:54;101607.04;;;20.33;38.27
79538;BME280;68989;52.032;5.152;2023-04-15T10:22:22;101606.95;;;20.55;37.38
79538;BME280;68989;52.032;5.152;2023-04-15T10:24:50;101612.17;;;20.73;37.15
79538;BME280;68989;52.032;5.152;2023-04-15T10:27:19;101613.74;;;20.87;36.73
79538;BME280;68989;52.032;5.152;2023-04-15T10:29:47;101616.36;;;20.97;36.09
79538;BME280;68989;52.032;5.152;2023-04-15T10:32:16;101619.23;;;20.85;36.09
79538;BME280;68989;52.032;5.152;2023-04-15T10:34:45;101612.88;;;20.92;36.41
79538;BME280;68989;52.032;5.152;2023-04-15T10:37:19;101614.88;;;21.01;36.07
79538;BME280;68989;52.032;5.152;2023-04-15T10:39:47;101616.66;;;21.17;35.93
79538;BME280;68989;52.032;5.152;2023-04-15T10:42:15;101615.17;;;21.24;35.48
79538;BME280;68989;52.032;5.152;2023-04-15T10:44:44;101611.62;;;21.28;36.01
79538;BME280;68989;52.032;5.152;2023-04-15T10:47:13;101617.41;;;21.46;36.32
79538;BME280;68989;52.032;5.152;2023-04-15T10:49:46;101615.92;;;21.73;36.00
79538;BME280;68989;52.032;5.152;2023-04-15T10:52:15;101615.00;;;21.92;35.44
79538;BME280;68989;52.032;5.152;2023-04-15T10:54:43;101618.82;;;22.15;35.09
79538;BME280;68989;52.032;5.152;2023-04-15T10:57:16;101622.16;;;22.40;35.07
79538;BME280;68989;52.032;5.152;2023-04-15T11:00:24;101623.37;;;22.56;34.93
79538;BME280;68989;52.032;5.152;2023-04-15T11:02:54;101631.28;;;22.74;34.30
79538;BME280;68989;52.032;5.152;2023-04-15T11:05:22;101642.91;;;22.78;33.90
79538;BME280;68989;52.032;5.152;2023-04-15T11:08:13;101639.85;;;22.60;33.47
79538;BME280;68989;52.032;5.152;2023-04-15T11:10:56;101641.46;;;22.49;33.71
79538;BME280;68989;52.032;5.152;2023-04-15T11:13:25;101637.23;;;22.59;34.08
79538;BME280;68989;52.032;5.152;2023-04-15T11:15:57;101639.85;;;22.49;34.14
79538;BME280;68989;52.032;5.152;2023-04-15T11:18:26;101641.13;;;22.70;34.20
79538;BME280;68989;52.032;5.152;2023-04-15T11:20:56;101639.85;;;22.69;33.78
79538;BME280;68989;52.032;5.152;2023-04-15T11:23:29;101644.00;;;22.64;33.71
79538;BME280;68989;52.032;5.152;2023-04-15T11:25:58;101651.92;;;22.73;33.80
79538;BME280;68989;52.032;5.152;2023-04-15T11:28:26;101651.08;;;22.87;33.51
79538;BME280;68989;52.032;5.152;2023-04-15T11:30:54;101658.85;;;22.89;33.48
79538;BME280;68989;52.032;5.152;2023-04-15T11:33:22;101655.31;;;22.84;33.69
79538;BME280;68989;52.032;5.152;2023-04-15T11:35:49;101661.87;;;22.99;33.76
79538;BME280;68989;52.032;5.152;2023-04-15T11:38:17;101667.88;;;23.15;33.28
79538;BME280;68989;52.032;5.152;2023-04-15T11:40:45;101669.03;;;23.36;33.83
79538;BME280;68989;52.032;5.152;2023-04-15T11:43:14;101675.70;;;23.53;32.66
79538;BME280;68989;52.032;5.152;2023-04-15T11:45:50;101676.16;;;23.57;32.60
79538;BME280;68989;52.032;5.152;2023-04-15T11:48:20;101679.06;;;23.56;32.60
79538;BME280;68989;52.032;5.152;2023-04-15T11:50:53;101684.00;;;23.52;32.06
79538;BME280;68989;52.032;5.152;2023-04-15T11:53:21;101684.08;;;23.47;32.40
79538;BME280;68989;52.032;5.152;2023-04-15T11:55:50;101683.86;;;23.18;33.16
79538;BME280;68989;52.032;5.152;2023-04-15T11:58:20;101680.08;;;23.23;33.46
79538;BME280;68989;52.032;5.152;2023-04-15T12:00:49;101691.91;;;23.21;33.54
79538;BME280;68989;52.032;5.152;2023-04-15T12:03:20;101692.54;;;23.18;33.11
79538;BME280;68989;52.032;5.152;2023-04-15T12:06:20;101691.37;;;23.14;32.71
79538;BME280;68989;52.032;5.152;2023-04-15T12:08:50;101696.88;;;23.01;33.40
79538;BME280;68989;52.032;5.152;2023-04-15T12:11:18;101703.68;;;22.86;32.77
79538;BME280;68989;52.032;5.152;2023-04-15T12:13:48;101699.11;;;22.91;33.40
79538;BME280;68989;52.032;5.152;2023-04-15T12:16:16;101701.76;;;22.93;33.24
79538;BME280;68989;52.032;5.152;2023-04-15T12:18:45;101700.99;;;23.03;32.40
79538;BME280;68989;52.032;5.152;2023-04-15T12:21:12;101713.86;;;22.90;32.74
79538;BME280;68989;52.032;5.152;2023-04-15T12:23:47;101710.74;;;23.02;32.63
79538;BME280;68989;52.032;5.152;2023-04-15T12:26:14;101713.25;;;23.22;32.59
79538;BME280;68989;52.032;5.152;2023-04-15T12:28:41;101724.82;;;23.47;32.52
79538;BME280;68989;52.032;5.152;2023-04-15T12:31:09;101726.91;;;23.66;32.09
79538;BME280;68989;52.032;5.152;2023-04-15T12:33:36;101725.95;;;23.90;31.82
79538;BME280;68989;52.032;5.152;2023-04-15T12:36:04;101729.75;;;24.13;31.35
79538;BME280;68989;52.032;5.152;2023-04-15T12:38:31;101741.77;;;24.16;31.10
79538;BME280;68989;52.032;5.152;2023-04-15T12:40:58;101744.03;;;24.23;30.73
79538;BME280;68989;52.032;5.152;2023-04-15T12:43:25;101742.48;;;24.21;30.42
79538;BME280;68989;52.032;5.152;2023-04-15T12:45:52;101740.16;;;24.13;30.68
79538;BME280;68989;52.032;5.152;2023-04-15T12:48:19;101746.19;;;24.10;30.90
79538;BME280;68989;52.032;5.152;2023-04-15T12:50:45;101747.68;;;24.15;31.27
79538;BME280;68989;52.032;5.152;2023-04-15T12:53:12;101750.43;;;24.27;31.52